createdAt,value
2018-11-25T00:00:57.076Z,55.60
2018-11-25T00:03:25.491Z,54.17
2018-11-25T00:05:53.909Z,54.00
2018-11-25T00:08:22.351Z,54.03
2018-11-25T00:10:50.819Z,54.33
2018-11-25T00:13:19.268Z,55.23
2018-11-25T00:15:47.719Z,56.40
2018-11-25T00:18:16.191Z,55.67
2018-11-25T00:20:44.607Z,55.43
2018-11-25T00:23:13.074Z,56.57
2018-11-25T00:25:41.502Z,56.83
2018-11-25T00:28:09.926Z,55.27
2018-11-25T00:30:38.360Z,54.50
2018-11-25T00:33:06.786Z,54.63
2018-11-25T00:35:35.188Z,55.37
2018-11-25T00:38:03.630Z,55.40
2018-11-25T00:40:32.078Z,56.47
2018-11-25T00:43:00.536Z,53.23
2018-11-25T00:45:29.051Z,56.03
2018-11-25T00:47:57.507Z,53.70
2018-11-25T00:50:25.973Z,56.83
2018-11-25T00:52:54.399Z,57.43
2018-11-25T00:55:22.882Z,54.20
2018-11-25T00:57:51.312Z,54.13
2018-11-25T01:00:20.166Z,53.90
2018-11-25T01:02:49.692Z,53.20
2018-11-25T01:05:18.206Z,54.93
2018-11-25T01:07:46.655Z,53.40
2018-11-25T01:10:15.971Z,52.27
2018-11-25T01:12:44.802Z,52.13
2018-11-25T01:15:14.225Z,52.93
2018-11-25T01:17:42.813Z,53.27
2018-11-25T01:20:16.452Z,53.47
2018-11-25T01:22:44.891Z,53.57
2018-11-25T01:25:13.316Z,54.87
2018-11-25T01:27:41.716Z,56.37
2018-11-25T01:30:11.476Z,57.90
2018-11-25T01:32:39.918Z,58.53
2018-11-25T01:35:10.223Z,56.50
2018-11-25T01:37:38.675Z,57.47
2018-11-25T01:40:14.086Z,58.17
2018-11-25T01:42:42.558Z,56.10
2018-11-25T01:45:12.036Z,56.00
2018-11-25T01:47:40.502Z,56.23
2018-11-25T01:50:13.206Z,54.40
2018-11-25T01:52:41.646Z,55.87
2018-11-25T01:55:11.296Z,54.70
2018-11-25T01:57:39.767Z,57.30
2018-11-25T02:00:13.340Z,55.17
2018-11-25T02:02:41.806Z,53.73
2018-11-25T02:05:10.235Z,53.73
2018-11-25T02:07:38.677Z,53.47
2018-11-25T02:10:09.258Z,52.03
2018-11-25T02:12:37.702Z,52.80
2018-11-25T02:15:08.039Z,51.60
2018-11-25T02:17:36.453Z,53.30
2018-11-25T02:20:09.919Z,51.70
2018-11-25T02:22:38.343Z,52.50
2018-11-25T02:25:07.016Z,49.83
2018-11-25T02:27:35.789Z,51.00
2018-11-25T02:30:04.769Z,48.97
2018-11-25T02:32:33.223Z,51.33
2018-11-25T02:35:01.681Z,50.90
2018-11-25T02:37:30.142Z,52.07
2018-11-25T02:39:58.561Z,52.83
2018-11-25T02:42:26.987Z,50.47
2018-11-25T02:44:55.401Z,50.63
2018-11-25T02:47:23.818Z,50.23
2018-11-25T02:49:52.229Z,51.20
2018-11-25T02:52:20.624Z,52.03
2018-11-25T02:54:49.029Z,50.57
2018-11-25T02:57:21.650Z,50.60
2018-11-25T02:59:50.234Z,49.10
2018-11-25T03:02:18.662Z,48.33
2018-11-25T03:04:47.111Z,50.23
2018-11-25T03:07:15.523Z,48.50
2018-11-25T03:09:44.064Z,49.67
2018-11-25T03:12:12.496Z,48.70
2018-11-25T03:14:40.930Z,49.83
2018-11-25T03:17:09.381Z,49.03
2018-11-25T03:19:37.919Z,50.47
2018-11-25T03:22:06.415Z,50.10
2018-11-25T03:24:34.850Z,48.80
2018-11-25T03:27:03.376Z,50.70
2018-11-25T03:29:31.824Z,48.17
2018-11-25T03:32:00.256Z,50.07
2018-11-25T03:34:28.874Z,47.93
2018-11-25T03:36:57.382Z,47.23
2018-11-25T03:39:25.871Z,48.40
2018-11-25T03:41:54.270Z,48.53
2018-11-25T03:44:22.688Z,48.33
2018-11-25T03:46:51.111Z,46.87
2018-11-25T03:49:19.514Z,51.23
2018-11-25T03:51:48.979Z,48.63
2018-11-25T03:54:17.446Z,47.43
2018-11-25T03:56:45.885Z,50.03
2018-11-25T03:59:14.373Z,47.70
2018-11-25T04:01:42.883Z,49.10
2018-11-25T04:04:11.431Z,48.27
2018-11-25T04:06:39.891Z,48.47
2018-11-25T04:09:09.211Z,50.27
2018-11-25T04:11:37.866Z,48.80
2018-11-25T04:14:08.921Z,49.60
2018-11-25T04:16:37.659Z,47.97
2018-11-25T04:19:06.571Z,48.23
2018-11-25T04:21:35.065Z,48.00
2018-11-25T04:24:03.514Z,51.33
2018-11-25T04:26:31.930Z,49.83
2018-11-25T04:29:00.352Z,51.00
2018-11-25T04:31:28.840Z,51.77
2018-11-25T04:33:57.248Z,51.43
2018-11-25T04:36:25.680Z,53.43
2018-11-25T04:38:54.153Z,52.13
2018-11-25T04:41:22.579Z,53.10
2018-11-25T04:43:51.027Z,52.67
2018-11-25T04:46:19.450Z,53.10
2018-11-25T04:48:47.883Z,51.07
2018-11-25T04:51:16.299Z,51.50
2018-11-25T04:53:44.715Z,50.97
2018-11-25T04:56:13.119Z,50.53
2018-11-25T04:58:41.531Z,53.93
2018-11-25T05:01:09.941Z,52.57
2018-11-25T05:03:38.357Z,52.17
2018-11-25T05:06:06.772Z,52.23
2018-11-25T05:08:35.211Z,52.50
2018-11-25T05:11:03.664Z,49.77
2018-11-25T05:13:32.084Z,51.30
2018-11-25T05:16:00.487Z,51.17
2018-11-25T05:18:28.969Z,52.57
2018-11-25T05:20:57.392Z,52.07
2018-11-25T05:23:25.843Z,57.63
2018-11-25T05:25:54.400Z,55.10
2018-11-25T05:28:22.867Z,54.30
2018-11-25T05:30:51.341Z,53.80
2018-11-25T05:33:19.790Z,52.27
2018-11-25T05:35:48.200Z,54.57
2018-11-25T05:38:16.617Z,53.93
2018-11-25T05:40:45.036Z,53.60
2018-11-25T05:43:13.455Z,51.73
2018-11-25T05:45:41.856Z,52.00
2018-11-25T05:48:10.282Z,54.73
2018-11-25T05:50:38.701Z,53.80
2018-11-25T05:53:07.188Z,54.33
2018-11-25T05:55:35.673Z,51.47
2018-11-25T05:58:04.092Z,51.73
2018-11-25T06:00:33.588Z,52.60
2018-11-25T06:03:02.355Z,52.17
2018-11-25T06:05:30.987Z,50.70
2018-11-25T06:07:59.451Z,50.03
2018-11-25T06:10:27.937Z,52.43
2018-11-25T06:12:56.509Z,51.80
2018-11-25T06:15:25.026Z,51.77
2018-11-25T06:17:53.520Z,51.03
2018-11-25T06:20:21.991Z,51.27
2018-11-25T06:22:50.402Z,50.97
2018-11-25T06:25:20.774Z,51.50
2018-11-25T06:27:49.277Z,51.10
2018-11-25T06:30:18.746Z,49.77
2018-11-25T06:32:47.239Z,49.63
2018-11-25T06:35:16.649Z,49.93
2018-11-25T06:37:45.091Z,49.10
2018-11-25T06:40:18.335Z,49.20
2018-11-25T06:42:46.790Z,49.73
2018-11-25T06:45:30.173Z,53.20
2018-11-25T06:47:58.951Z,49.40
2018-11-25T06:50:27.384Z,48.77
2018-11-25T06:52:55.846Z,51.93
2018-11-25T06:55:24.283Z,52.00
2018-11-25T06:57:52.746Z,53.40
2018-11-25T07:00:22.209Z,53.33
2018-11-25T07:02:50.669Z,51.13
2018-11-25T07:05:19.089Z,52.83
2018-11-25T07:07:47.514Z,53.67
2018-11-25T07:10:18.904Z,53.60
2018-11-25T07:12:48.286Z,54.67
2018-11-25T07:15:17.570Z,53.03
2018-11-25T07:17:46.050Z,52.27
2018-11-25T07:20:15.471Z,51.00
2018-11-25T07:22:43.962Z,49.60
2018-11-25T07:25:13.649Z,48.67
2018-11-25T07:27:42.066Z,47.07
2018-11-25T07:30:14.130Z,48.23
2018-11-25T07:32:42.570Z,48.07
2018-11-25T07:35:11.030Z,46.37
2018-11-25T07:37:39.889Z,47.47
2018-11-25T07:40:10.886Z,49.53
2018-11-25T07:42:39.323Z,47.13
2018-11-25T07:45:10.120Z,46.33
2018-11-25T07:47:38.635Z,46.13
2018-11-25T07:50:08.760Z,46.07
2018-11-25T07:52:37.207Z,47.70
2018-11-25T07:55:10.139Z,43.43
2018-11-25T07:57:38.811Z,45.53
2018-11-25T08:00:13.710Z,45.47
2018-11-25T08:02:42.197Z,47.37
2018-11-25T08:05:11.885Z,46.07
2018-11-25T08:07:40.314Z,51.17
2018-11-25T08:10:10.170Z,48.33
2018-11-25T08:12:38.609Z,47.00
2018-11-25T08:15:11.117Z,46.20
2018-11-25T08:17:39.839Z,46.20
2018-11-25T08:20:12.147Z,47.57
2018-11-25T08:22:40.647Z,43.97
2018-11-25T08:25:12.043Z,46.97
2018-11-25T08:27:40.513Z,47.17
2018-11-25T08:30:16.982Z,46.80
2018-11-25T08:32:45.458Z,50.57
2018-11-25T08:35:14.559Z,53.20
2018-11-25T08:37:43.074Z,57.80
2018-11-25T08:40:13.736Z,55.90
2018-11-25T08:42:42.214Z,58.63
2018-11-25T08:45:11.697Z,55.57
2018-11-25T08:47:40.186Z,55.80
2018-11-25T08:50:12.655Z,54.67
2018-11-25T08:52:41.441Z,56.10
2018-11-25T08:55:14.838Z,54.30
2018-11-25T08:57:43.342Z,53.07
2018-11-25T09:00:13.152Z,50.97
2018-11-25T09:02:41.680Z,51.07
2018-11-25T09:05:11.349Z,50.93
2018-11-25T09:07:39.795Z,51.53
2018-11-25T09:10:10.771Z,52.40
2018-11-25T09:12:39.209Z,48.60
2018-11-25T09:15:10.867Z,48.03
2018-11-25T09:17:39.332Z,48.70
2018-11-25T09:20:12.351Z,47.87
2018-11-25T09:22:40.863Z,48.87
2018-11-25T09:25:12.790Z,47.00
2018-11-25T09:27:41.254Z,48.30
2018-11-25T09:30:26.809Z,47.17
2018-11-25T09:32:55.268Z,48.20
2018-11-25T09:35:24.101Z,48.13
2018-11-25T09:37:52.530Z,45.70
2018-11-25T09:40:23.334Z,43.90
2018-11-25T09:42:51.785Z,43.90
2018-11-25T09:45:20.651Z,40.47
2018-11-25T09:47:49.486Z,41.43
2018-11-25T09:50:20.052Z,41.40
2018-11-25T09:52:48.540Z,42.20
2018-11-25T09:55:17.989Z,39.40
2018-11-25T09:57:50.637Z,38.90
2018-11-25T10:00:24.119Z,39.83
2018-11-25T10:02:52.544Z,40.70
2018-11-25T10:05:20.993Z,38.80
2018-11-25T10:07:49.501Z,41.33
2018-11-25T10:10:19.825Z,41.73
2018-11-25T10:12:48.295Z,42.20
2018-11-25T10:15:19.563Z,38.73
2018-11-25T10:17:48.041Z,39.97
2018-11-25T10:20:18.540Z,44.07
2018-11-25T10:22:46.987Z,37.77
2018-11-25T10:25:16.148Z,40.13
2018-11-25T10:27:44.682Z,36.07
2018-11-25T10:30:14.290Z,32.90
2018-11-25T10:32:42.934Z,32.30
2018-11-25T10:35:11.462Z,34.37
2018-11-25T10:37:39.973Z,32.27
2018-11-25T10:40:15.577Z,33.27
2018-11-25T10:42:44.151Z,34.20
2018-11-25T10:45:14.704Z,33.33
2018-11-25T10:47:43.248Z,35.13
2018-11-25T10:50:14.664Z,33.20
2018-11-25T10:52:43.180Z,30.80
2018-11-25T10:55:12.652Z,29.77
2018-11-25T10:57:41.739Z,30.20
2018-11-25T11:00:21.997Z,29.27
2018-11-25T11:02:55.870Z,29.10
2018-11-25T11:05:29.713Z,30.17
2018-11-25T11:07:58.217Z,33.70
2018-11-25T11:10:26.689Z,35.23
2018-11-25T11:12:55.150Z,42.77
2018-11-25T11:15:23.776Z,50.77
2018-11-25T11:17:52.259Z,51.87
2018-11-25T11:20:20.683Z,54.87
2018-11-25T11:22:49.148Z,58.43
2018-11-25T11:25:17.634Z,60.40
2018-11-25T11:27:54.745Z,59.70
2018-11-25T11:30:23.180Z,46.33
2018-11-25T11:32:51.703Z,43.83
2018-11-25T11:35:21.536Z,43.77
2018-11-25T11:37:49.984Z,51.47
2018-11-25T11:40:18.533Z,52.90
2018-11-25T11:42:46.994Z,50.77
2018-11-25T11:45:15.983Z,55.53
2018-11-25T11:47:45.096Z,57.90
2018-11-25T11:50:15.742Z,58.93
2018-11-25T11:52:44.207Z,61.70
2018-11-25T11:55:13.769Z,67.37
2018-11-25T11:57:42.684Z,68.13
2018-11-25T12:00:14.642Z,68.37
2018-11-25T12:02:43.073Z,63.83
2018-11-25T12:05:11.632Z,57.50
2018-11-25T12:07:40.094Z,55.87
2018-11-25T12:10:10.478Z,53.37
2018-11-25T12:12:39.030Z,46.47
2018-11-25T12:15:11.533Z,47.27
2018-11-25T12:17:39.998Z,47.47
2018-11-25T12:20:09.316Z,46.63
2018-11-25T12:22:37.845Z,50.50
2018-11-25T12:25:09.007Z,49.33
2018-11-25T12:27:37.462Z,50.30
2018-11-25T12:30:09.173Z,55.93
2018-11-25T12:32:37.801Z,65.97
2018-11-25T12:35:07.054Z,66.83
2018-11-25T12:37:36.221Z,72.57
2018-11-25T12:40:04.605Z,74.13
2018-11-25T12:42:33.218Z,74.87
2018-11-25T12:45:01.680Z,72.83
2018-11-25T12:47:30.147Z,72.83
2018-11-25T12:49:58.584Z,72.10
2018-11-25T12:52:27.048Z,73.90
2018-11-25T12:54:55.466Z,75.90
2018-11-25T12:57:23.972Z,76.00
2018-11-25T12:59:52.439Z,73.87
2018-11-25T13:02:20.872Z,82.43
2018-11-25T13:04:49.297Z,77.10
2018-11-25T13:07:17.746Z,75.73
2018-11-25T13:09:46.240Z,81.07
2018-11-25T13:12:14.683Z,84.10
2018-11-25T13:14:43.121Z,79.17
2018-11-25T13:17:11.570Z,77.27
2018-11-25T13:19:40.026Z,66.40
2018-11-25T13:22:08.465Z,71.10
2018-11-25T13:24:36.905Z,69.80
2018-11-25T13:27:05.416Z,73.20
2018-11-25T13:29:33.868Z,83.93
2018-11-25T13:32:02.326Z,85.33
2018-11-25T13:34:30.795Z,82.17
2018-11-25T13:36:59.257Z,87.00
2018-11-25T13:39:27.744Z,81.27
2018-11-25T13:41:56.187Z,83.20
2018-11-25T13:44:24.627Z,82.70
2018-11-25T13:46:53.072Z,78.23
2018-11-25T13:49:21.466Z,77.73
2018-11-25T13:51:49.914Z,74.20
2018-11-25T13:54:18.341Z,70.53
2018-11-25T13:56:46.758Z,73.97
2018-11-25T13:59:15.212Z,75.87
2018-11-25T14:01:43.656Z,76.70
2018-11-25T14:04:12.104Z,77.83
2018-11-25T14:06:40.547Z,75.33
2018-11-25T14:09:12.230Z,78.30
2018-11-25T14:11:40.651Z,76.50
2018-11-25T14:14:09.105Z,73.57
2018-11-25T14:16:37.594Z,72.93
2018-11-25T14:19:06.654Z,75.10
2018-11-25T14:21:35.123Z,75.97
2018-11-25T14:24:03.532Z,73.13
2018-11-25T14:26:36.461Z,72.53
2018-11-25T14:29:05.053Z,72.70
2018-11-25T14:31:33.487Z,76.37
2018-11-25T14:34:01.896Z,74.60
2018-11-25T14:36:30.328Z,77.17
2018-11-25T14:38:58.837Z,74.97
2018-11-25T14:41:27.253Z,73.63
2018-11-25T14:43:55.709Z,74.40
2018-11-25T14:46:24.165Z,75.73
2018-11-25T14:48:52.629Z,73.97
2018-11-25T14:51:21.076Z,78.70
2018-11-25T14:53:50.439Z,80.43
2018-11-25T14:56:18.924Z,74.33
2018-11-25T14:58:47.381Z,72.53
2018-11-25T15:01:15.887Z,74.70
2018-11-25T15:03:44.331Z,74.57
2018-11-25T15:06:12.745Z,80.50
2018-11-25T15:08:41.235Z,79.57
2018-11-25T15:11:09.705Z,74.80
2018-11-25T15:16:14.370Z,78.80
2018-11-25T15:18:42.884Z,80.30
2018-11-25T15:21:12.845Z,75.97
2018-11-25T15:23:41.446Z,75.77
2018-11-25T15:26:12.234Z,78.53
2018-11-25T15:28:40.982Z,73.97
2018-11-25T15:31:09.487Z,77.63
2018-11-25T15:33:37.978Z,75.57
2018-11-25T15:36:06.530Z,75.07
2018-11-25T15:38:34.982Z,75.80
2018-11-25T15:41:03.410Z,77.37
2018-11-25T15:43:31.848Z,77.00
2018-11-25T15:46:00.367Z,80.30
2018-11-25T15:48:30.074Z,76.33
2018-11-25T15:50:58.557Z,73.03
2018-11-25T15:53:26.971Z,74.90
2018-11-25T15:56:03.650Z,70.63
2018-11-25T15:58:32.329Z,73.70
2018-11-25T16:01:00.802Z,70.67
2018-11-25T16:03:29.279Z,70.70
2018-11-25T16:06:06.578Z,75.43
2018-11-25T16:08:38.344Z,72.83
2018-11-25T16:11:03.839Z,71.07
2018-11-25T16:13:32.490Z,68.13
2018-11-25T16:16:01.021Z,65.63
2018-11-25T16:18:32.388Z,66.67
2018-11-25T16:21:00.826Z,61.43
2018-11-25T16:23:29.250Z,62.97
2018-11-25T16:26:00.160Z,60.60
2018-11-25T16:28:32.824Z,58.63
2018-11-25T16:31:01.261Z,58.30
2018-11-25T16:33:29.727Z,56.77
2018-11-25T16:35:58.262Z,57.57
2018-11-25T16:38:26.715Z,56.67
2018-11-25T16:40:55.209Z,57.43
2018-11-25T16:43:23.659Z,56.30
2018-11-25T16:45:52.117Z,57.60
2018-11-25T16:48:20.604Z,56.53
2018-11-25T16:50:49.117Z,56.83
2018-11-25T16:53:17.785Z,55.87
2018-11-25T16:55:47.076Z,57.00
2018-11-25T16:58:15.548Z,55.63
2018-11-25T17:00:44.196Z,53.03
2018-11-25T17:03:12.701Z,54.43
2018-11-25T17:05:43.680Z,54.53
2018-11-25T17:08:19.431Z,56.13
2018-11-25T17:10:48.054Z,54.30
2018-11-25T17:13:16.590Z,55.10
2018-11-25T17:15:46.006Z,51.93
2018-11-25T17:18:14.529Z,57.50
2018-11-25T17:20:43.099Z,55.20
2018-11-25T17:23:11.680Z,56.87
2018-11-25T17:25:40.167Z,57.27
2018-11-25T17:28:08.734Z,54.67
2018-11-25T17:30:37.321Z,53.63
2018-11-25T17:33:06.473Z,55.60
2018-11-25T17:35:34.918Z,52.03
2018-11-25T17:38:03.396Z,53.00
2018-11-25T17:40:31.945Z,55.20
2018-11-25T17:43:00.736Z,52.97
2018-11-25T17:45:29.313Z,52.07
2018-11-25T17:48:05.051Z,50.33
2018-11-25T17:50:34.187Z,46.00
2018-11-25T17:53:02.728Z,46.77
2018-11-25T17:55:31.980Z,43.67
2018-11-25T17:58:00.664Z,46.50
2018-11-25T18:00:39.668Z,43.30
2018-11-25T18:03:30.006Z,43.10
2018-11-25T18:05:58.514Z,42.17
2018-11-25T18:08:27.128Z,38.17
2018-11-25T18:10:55.636Z,39.83
2018-11-25T18:13:26.494Z,35.43
2018-11-25T18:15:56.441Z,35.60
2018-11-25T18:18:37.036Z,34.97
2018-11-25T18:21:08.254Z,35.10
2018-11-25T18:23:36.720Z,33.97
2018-11-25T18:26:05.475Z,30.23
2018-11-25T18:28:33.963Z,31.40
2018-11-25T18:31:02.444Z,29.60
2018-11-25T18:33:30.883Z,28.23
2018-11-25T18:35:59.282Z,27.63
2018-11-25T18:38:27.821Z,26.70
2018-11-25T18:40:56.235Z,27.00
2018-11-25T18:43:24.687Z,28.23
2018-11-25T18:45:59.105Z,28.20
2018-11-25T18:48:21.758Z,28.80
2018-11-25T18:50:50.230Z,26.70
2018-11-25T18:53:18.695Z,27.40
2018-11-25T18:55:46.018Z,25.93
2018-11-25T18:58:14.508Z,25.77
2018-11-25T19:00:52.683Z,25.87
2018-11-25T19:03:21.163Z,25.63
2018-11-25T19:05:49.716Z,28.73
2018-11-25T19:08:18.154Z,25.20
2018-11-25T19:10:46.573Z,23.50
2018-11-25T19:13:14.998Z,24.27
2018-11-25T19:15:43.467Z,23.57
2018-11-25T19:18:11.941Z,23.40
2018-11-25T19:20:40.386Z,24.50
2018-11-25T19:23:08.849Z,23.90
2018-11-25T19:25:37.276Z,24.27
2018-11-25T19:28:08.168Z,22.27
2018-11-25T19:30:36.623Z,24.37
2018-11-25T19:33:05.529Z,23.93
2018-11-25T19:35:33.983Z,25.33
2018-11-25T19:38:02.480Z,25.87
2018-11-25T19:40:30.930Z,27.60
2018-11-25T19:42:59.378Z,26.40
2018-11-25T19:45:28.209Z,26.70
2018-11-25T19:47:57.325Z,27.23
2018-11-25T19:50:29.095Z,29.03
2018-11-25T19:52:57.564Z,27.47
2018-11-25T19:55:26.030Z,27.80
2018-11-25T19:57:54.514Z,27.63
2018-11-25T20:00:24.087Z,30.60
2018-11-25T20:02:52.549Z,27.10
2018-11-25T20:05:21.029Z,29.70
2018-11-25T20:07:49.738Z,28.00
2018-11-25T20:10:20.451Z,29.83
2018-11-25T20:12:50.234Z,29.20
2018-11-25T20:15:19.361Z,29.10
2018-11-25T20:17:54.080Z,29.07
2018-11-25T20:20:17.526Z,29.00
2018-11-25T20:22:46.138Z,30.07
2018-11-25T20:25:15.105Z,29.73
2018-11-25T20:27:46.476Z,28.63
2018-11-25T20:30:16.085Z,28.93
2018-11-25T20:32:49.988Z,29.23
2018-11-25T20:35:18.400Z,30.60
2018-11-25T20:37:52.200Z,32.17
2018-11-25T20:40:20.659Z,29.90
2018-11-25T20:42:49.177Z,30.17
2018-11-25T20:45:24.144Z,32.57
2018-11-25T20:47:52.626Z,30.87
2018-11-25T20:50:21.050Z,30.63
2018-11-25T20:52:54.818Z,31.77
2018-11-25T20:55:23.272Z,29.63
2018-11-25T20:57:51.715Z,31.13
2018-11-25T21:00:22.479Z,31.10
2018-11-25T21:02:50.970Z,30.67
2018-11-25T21:05:19.445Z,29.67
2018-11-25T21:07:47.880Z,31.30
2018-11-25T21:10:17.445Z,31.00
2018-11-25T21:12:49.156Z,30.77
2018-11-25T21:15:17.677Z,29.60
2018-11-25T21:17:46.145Z,31.23
2018-11-25T21:20:18.694Z,29.30
2018-11-25T21:22:47.177Z,30.73
2018-11-25T21:25:17.585Z,30.53
2018-11-25T21:27:46.116Z,30.00
2018-11-25T21:30:15.755Z,29.67
2018-11-25T21:32:44.878Z,30.63
2018-11-25T21:35:13.638Z,30.70
2018-11-25T21:37:42.072Z,32.93
2018-11-25T21:40:15.443Z,30.10
2018-11-25T21:42:50.585Z,32.10
2018-11-25T21:45:19.980Z,30.83
2018-11-25T21:47:48.845Z,31.27
2018-11-25T21:50:21.555Z,31.97
2018-11-25T21:52:49.986Z,30.47
2018-11-25T21:55:18.816Z,32.13
2018-11-25T21:57:48.105Z,29.90
2018-11-25T22:00:20.279Z,31.53
2018-11-25T22:02:48.859Z,32.57
2018-11-25T22:05:17.309Z,33.30
2018-11-25T22:07:45.764Z,33.33
2018-11-25T22:10:15.881Z,35.47
2018-11-25T22:12:44.796Z,34.00
2018-11-25T22:15:15.908Z,36.77
2018-11-25T22:17:44.377Z,33.57
2018-11-25T22:20:13.904Z,38.10
2018-11-25T22:22:42.361Z,38.33
2018-11-25T22:25:12.641Z,36.83
2018-11-25T22:27:41.078Z,36.83
2018-11-25T22:30:25.838Z,38.40
2018-11-25T22:32:54.343Z,40.50
2018-11-25T22:35:23.504Z,42.87
2018-11-25T22:37:51.935Z,43.30
2018-11-25T22:40:20.678Z,43.40
2018-11-25T22:42:49.911Z,43.10
2018-11-25T22:45:20.577Z,44.03
2018-11-25T22:47:49.025Z,44.50
2018-11-25T22:50:19.110Z,46.47
2018-11-25T22:52:47.703Z,46.23
2018-11-25T22:55:22.396Z,46.93
2018-11-25T22:57:50.943Z,46.40
2018-11-25T23:00:35.200Z,43.60
2018-11-25T23:03:03.662Z,45.20
2018-11-25T23:05:43.286Z,44.17
2018-11-25T23:08:11.726Z,45.97
2018-11-25T23:10:40.173Z,46.10
2018-11-25T23:13:08.699Z,45.93
2018-11-25T23:15:37.178Z,44.77
2018-11-25T23:18:05.680Z,45.37
2018-11-25T23:20:34.084Z,45.30
2018-11-25T23:23:02.499Z,45.03
2018-11-25T23:25:30.985Z,44.47
2018-11-25T23:27:59.427Z,43.30
2018-11-25T23:30:27.859Z,43.37
2018-11-25T23:32:56.269Z,42.30
2018-11-25T23:35:26.103Z,42.10
2018-11-25T23:37:54.568Z,40.93
2018-11-25T23:40:22.984Z,40.37
2018-11-25T23:42:51.410Z,42.03
2018-11-25T23:45:19.852Z,43.13
2018-11-25T23:47:48.326Z,44.53
2018-11-25T23:50:16.736Z,44.27
2018-11-25T23:52:46.383Z,46.47
2018-11-25T23:55:15.239Z,45.43
2018-11-25T23:57:43.699Z,44.60
